sensor_id;sensor_type;location;lat;lon;timestamp;P1;durP1;ratioP1;P2;durP2;ratioP2
75379;SDS011;64279;44.714;37.756;2022-11-23T00:00:34;3.33;;;2.20;;
75379;SDS011;64279;44.714;37.756;2022-11-23T00:01:37;2.20;;;1.20;;
75379;SDS011;64279;44.714;37.756;2022-11-23T00:02:40;2.58;;;1.35;;
75379;SDS011;64279;44.714;37.756;2022-11-23T00:03:43;2.38;;;1.27;;
75379;SDS011;64279;44.714;37.756;2022-11-23T00:04:47;2.22;;;1.35;;
75379;SDS011;64279;44.714;37.756;2022-11-23T00:05:50;1.83;;;1.23;;
75379;SDS011;64279;44.714;37.756;2022-11-23T00:06:52;2.20;;;1.50;;
75379;SDS011;64279;44.714;37.756;2022-11-23T00:07:55;2.10;;;1.23;;
75379;SDS011;64279;44.714;37.756;2022-11-23T00:08:57;2.47;;;1.50;;
75379;SDS011;64279;44.714;37.756;2022-11-23T00:10:00;2.30;;;1.40;;
75379;SDS011;64279;44.714;37.756;2022-11-23T00:11:03;1.75;;;1.00;;
75379;SDS011;64279;44.714;37.756;2022-11-23T00:12:06;2.10;;;1.33;;
75379;SDS011;64279;44.714;37.756;2022-11-23T00:13:08;4.90;;;1.60;;
75379;SDS011;64279;44.714;37.756;2022-11-23T00:14:11;2.00;;;1.25;;
75379;SDS011;64279;44.714;37.756;2022-11-23T00:15:14;2.92;;;1.27;;
75379;SDS011;64279;44.714;37.756;2022-11-23T00:16:18;2.45;;;1.75;;
75379;SDS011;64279;44.714;37.756;2022-11-23T00:17:22;2.40;;;2.10;;
75379;SDS011;64279;44.714;37.756;2022-11-23T00:18:25;1.75;;;0.80;;
75379;SDS011;64279;44.714;37.756;2022-11-23T00:19:28;2.40;;;1.35;;
75379;SDS011;64279;44.714;37.756;2022-11-23T00:20:31;2.28;;;1.23;;
75379;SDS011;64279;44.714;37.756;2022-11-23T00:21:34;1.83;;;1.58;;
75379;SDS011;64279;44.714;37.756;2022-11-23T00:22:36;1.88;;;1.50;;
75379;SDS011;64279;44.714;37.756;2022-11-23T00:23:39;2.15;;;1.95;;
75379;SDS011;64279;44.714;37.756;2022-11-23T00:24:41;2.28;;;1.10;;
75379;SDS011;64279;44.714;37.756;2022-11-23T00:25:44;2.38;;;1.23;;
75379;SDS011;64279;44.714;37.756;2022-11-23T00:26:47;2.50;;;1.35;;
75379;SDS011;64279;44.714;37.756;2022-11-23T00:27:50;1.90;;;1.05;;
75379;SDS011;64279;44.714;37.756;2022-11-23T00:28:53;2.10;;;1.15;;
75379;SDS011;64279;44.714;37.756;2022-11-23T00:30:00;1.60;;;1.13;;
75379;SDS011;64279;44.714;37.756;2022-11-23T00:31:05;2.15;;;1.45;;
75379;SDS011;64279;44.714;37.756;2022-11-23T00:32:08;2.70;;;1.20;;
75379;SDS011;64279;44.714;37.756;2022-11-23T00:33:11;2.83;;;1.10;;
75379;SDS011;64279;44.714;37.756;2022-11-23T00:34:14;1.92;;;1.13;;
75379;SDS011;64279;44.714;37.756;2022-11-23T00:35:17;2.28;;;1.38;;
75379;SDS011;64279;44.714;37.756;2022-11-23T00:36:20;2.60;;;1.30;;
75379;SDS011;64279;44.714;37.756;2022-11-23T00:37:23;1.88;;;1.10;;
75379;SDS011;64279;44.714;37.756;2022-11-23T00:38:28;2.30;;;1.35;;
75379;SDS011;64279;44.714;37.756;2022-11-23T00:39:31;1.52;;;1.15;;
75379;SDS011;64279;44.714;37.756;2022-11-23T00:40:34;2.33;;;1.10;;
75379;SDS011;64279;44.714;37.756;2022-11-23T00:41:37;3.28;;;1.08;;
75379;SDS011;64279;44.714;37.756;2022-11-23T00:42:39;1.60;;;0.90;;
75379;SDS011;64279;44.714;37.756;2022-11-23T00:43:42;2.10;;;1.25;;
75379;SDS011;64279;44.714;37.756;2022-11-23T00:44:45;2.45;;;1.48;;
75379;SDS011;64279;44.714;37.756;2022-11-23T00:45:47;2.03;;;1.08;;
75379;SDS011;64279;44.714;37.756;2022-11-23T00:46:51;1.70;;;0.82;;
75379;SDS011;64279;44.714;37.756;2022-11-23T00:47:54;1.88;;;1.13;;
75379;SDS011;64279;44.714;37.756;2022-11-23T00:48:56;1.80;;;1.00;;
75379;SDS011;64279;44.714;37.756;2022-11-23T00:49:59;2.10;;;1.27;;
75379;SDS011;64279;44.714;37.756;2022-11-23T00:51:04;1.95;;;1.20;;
75379;SDS011;64279;44.714;37.756;2022-11-23T00:52:08;1.65;;;0.95;;
75379;SDS011;64279;44.714;37.756;2022-11-23T00:53:10;2.40;;;0.88;;
75379;SDS011;64279;44.714;37.756;2022-11-23T00:54:13;3.17;;;1.10;;
75379;SDS011;64279;44.714;37.756;2022-11-23T00:55:16;3.28;;;1.30;;
75379;SDS011;64279;44.714;37.756;2022-11-23T00:56:19;1.80;;;1.00;;
75379;SDS011;64279;44.714;37.756;2022-11-23T00:57:21;2.40;;;2.15;;
75379;SDS011;64279;44.714;37.756;2022-11-23T00:58:24;1.92;;;1.20;;
75379;SDS011;64279;44.714;37.756;2022-11-23T00:59:27;2.17;;;1.30;;
75379;SDS011;64279;44.714;37.756;2022-11-23T01:00:31;2.78;;;1.08;;
75379;SDS011;64279;44.714;37.756;2022-11-23T01:01:34;2.15;;;1.35;;
75379;SDS011;64279;44.714;37.756;2022-11-23T01:02:40;2.20;;;1.30;;
75379;SDS011;64279;44.714;37.756;2022-11-23T01:03:44;2.45;;;1.15;;
75379;SDS011;64279;44.714;37.756;2022-11-23T01:04:48;2.90;;;1.30;;
75379;SDS011;64279;44.714;37.756;2022-11-23T01:05:51;2.30;;;1.20;;
75379;SDS011;64279;44.714;37.756;2022-11-23T01:06:55;2.40;;;1.35;;
75379;SDS011;64279;44.714;37.756;2022-11-23T01:08:01;2.10;;;1.20;;
75379;SDS011;64279;44.714;37.756;2022-11-23T01:09:07;2.15;;;1.05;;
75379;SDS011;64279;44.714;37.756;2022-11-23T01:10:13;1.90;;;1.20;;
75379;SDS011;64279;44.714;37.756;2022-11-23T01:11:15;1.45;;;0.77;;
75379;SDS011;64279;44.714;37.756;2022-11-23T01:12:19;2.55;;;1.33;;
75379;SDS011;64279;44.714;37.756;2022-11-23T01:13:21;1.63;;;0.90;;
75379;SDS011;64279;44.714;37.756;2022-11-23T01:14:24;1.98;;;1.13;;
75379;SDS011;64279;44.714;37.756;2022-11-23T01:15:26;1.65;;;0.93;;
75379;SDS011;64279;44.714;37.756;2022-11-23T01:16:32;2.10;;;1.10;;
75379;SDS011;64279;44.714;37.756;2022-11-23T01:17:37;3.03;;;1.55;;
75379;SDS011;64279;44.714;37.756;2022-11-23T01:18:42;2.05;;;1.20;;
75379;SDS011;64279;44.714;37.756;2022-11-23T01:19:45;2.40;;;1.30;;
75379;SDS011;64279;44.714;37.756;2022-11-23T01:20:47;2.00;;;1.45;;
75379;SDS011;64279;44.714;37.756;2022-11-23T01:21:50;1.67;;;0.98;;
75379;SDS011;64279;44.714;37.756;2022-11-23T01:22:53;2.35;;;1.20;;
75379;SDS011;64279;44.714;37.756;2022-11-23T01:23:56;2.08;;;1.88;;
75379;SDS011;64279;44.714;37.756;2022-11-23T01:24:58;2.08;;;1.27;;
75379;SDS011;64279;44.714;37.756;2022-11-23T01:26:05;2.25;;;1.13;;
75379;SDS011;64279;44.714;37.756;2022-11-23T01:27:09;2.03;;;1.13;;
75379;SDS011;64279;44.714;37.756;2022-11-23T01:28:12;1.90;;;1.20;;
75379;SDS011;64279;44.714;37.756;2022-11-23T01:29:14;1.83;;;1.02;;
75379;SDS011;64279;44.714;37.756;2022-11-23T01:30:17;1.65;;;1.13;;
75379;SDS011;64279;44.714;37.756;2022-11-23T01:31:20;2.75;;;1.27;;
75379;SDS011;64279;44.714;37.756;2022-11-23T01:32:25;2.13;;;1.92;;
75379;SDS011;64279;44.714;37.756;2022-11-23T01:33:27;1.95;;;0.95;;
75379;SDS011;64279;44.714;37.756;2022-11-23T01:34:30;2.13;;;1.50;;
75379;SDS011;64279;44.714;37.756;2022-11-23T01:35:33;2.03;;;0.98;;
75379;SDS011;64279;44.714;37.756;2022-11-23T01:36:36;1.85;;;1.08;;
75379;SDS011;64279;44.714;37.756;2022-11-23T01:37:38;2.70;;;1.45;;
75379;SDS011;64279;44.714;37.756;2022-11-23T01:38:43;1.73;;;1.08;;
75379;SDS011;64279;44.714;37.756;2022-11-23T01:39:46;2.30;;;1.20;;
75379;SDS011;64279;44.714;37.756;2022-11-23T01:40:49;2.00;;;1.35;;
75379;SDS011;64279;44.714;37.756;2022-11-23T01:41:52;2.17;;;1.08;;
75379;SDS011;64279;44.714;37.756;2022-11-23T01:42:56;2.17;;;1.05;;
75379;SDS011;64279;44.714;37.756;2022-11-23T01:45:32;1.92;;;1.30;;
75379;SDS011;64279;44.714;37.756;2022-11-23T01:46:55;1.75;;;0.82;;
75379;SDS011;64279;44.714;37.756;2022-11-23T01:47:59;2.40;;;1.08;;
75379;SDS011;64279;44.714;37.756;2022-11-23T01:49:04;1.45;;;0.80;;
75379;SDS011;64279;44.714;37.756;2022-11-23T01:50:08;2.13;;;1.38;;
75379;SDS011;64279;44.714;37.756;2022-11-23T01:51:14;3.00;;;2.72;;
75379;SDS011;64279;44.714;37.756;2022-11-23T01:52:23;1.77;;;1.02;;
75379;SDS011;64279;44.714;37.756;2022-11-23T01:53:27;1.83;;;0.90;;
75379;SDS011;64279;44.714;37.756;2022-11-23T01:54:38;1.95;;;1.10;;
75379;SDS011;64279;44.714;37.756;2022-11-23T01:55:50;1.98;;;0.95;;
75379;SDS011;64279;44.714;37.756;2022-11-23T01:56:54;2.13;;;1.17;;
75379;SDS011;64279;44.714;37.756;2022-11-23T01:58:01;1.63;;;0.95;;
75379;SDS011;64279;44.714;37.756;2022-11-23T01:59:07;3.03;;;1.30;;
75379;SDS011;64279;44.714;37.756;2022-11-23T02:00:13;2.35;;;2.15;;
75379;SDS011;64279;44.714;37.756;2022-11-23T02:01:17;2.10;;;1.30;;
75379;SDS011;64279;44.714;37.756;2022-11-23T02:02:21;2.05;;;1.30;;
75379;SDS011;64279;44.714;37.756;2022-11-23T02:03:27;3.05;;;1.70;;
75379;SDS011;64279;44.714;37.756;2022-11-23T02:04:32;2.67;;;1.23;;
75379;SDS011;64279;44.714;37.756;2022-11-23T02:05:43;2.30;;;1.30;;
75379;SDS011;64279;44.714;37.756;2022-11-23T02:06:49;1.90;;;1.00;;
75379;SDS011;64279;44.714;37.756;2022-11-23T02:07:53;2.53;;;1.48;;
75379;SDS011;64279;44.714;37.756;2022-11-23T02:08:57;2.92;;;1.08;;
75379;SDS011;64279;44.714;37.756;2022-11-23T02:10:01;2.08;;;0.80;;
75379;SDS011;64279;44.714;37.756;2022-11-23T02:11:04;2.30;;;1.50;;
75379;SDS011;64279;44.714;37.756;2022-11-23T02:12:10;2.10;;;1.33;;
75379;SDS011;64279;44.714;37.756;2022-11-23T02:13:13;2.13;;;1.05;;
75379;SDS011;64279;44.714;37.756;2022-11-23T02:14:17;2.22;;;1.42;;
75379;SDS011;64279;44.714;37.756;2022-11-23T02:15:28;2.10;;;1.10;;
75379;SDS011;64279;44.714;37.756;2022-11-23T02:16:31;2.17;;;1.38;;
75379;SDS011;64279;44.714;37.756;2022-11-23T02:17:34;3.53;;;1.20;;
75379;SDS011;64279;44.714;37.756;2022-11-23T02:18:37;2.20;;;1.13;;
75379;SDS011;64279;44.714;37.756;2022-11-23T02:20:53;2.15;;;1.20;;
75379;SDS011;64279;44.714;37.756;2022-11-23T02:21:57;1.88;;;1.17;;
75379;SDS011;64279;44.714;37.756;2022-11-23T02:24:09;2.13;;;1.20;;
75379;SDS011;64279;44.714;37.756;2022-11-23T02:26:44;3.10;;;1.38;;
75379;SDS011;64279;44.714;37.756;2022-11-23T02:27:47;2.03;;;1.00;;
75379;SDS011;64279;44.714;37.756;2022-11-23T02:28:56;2.17;;;1.33;;
75379;SDS011;64279;44.714;37.756;2022-11-23T02:30:04;2.88;;;1.45;;
75379;SDS011;64279;44.714;37.756;2022-11-23T02:31:07;2.92;;;2.63;;
75379;SDS011;64279;44.714;37.756;2022-11-23T02:32:09;2.00;;;1.23;;
75379;SDS011;64279;44.714;37.756;2022-11-23T02:33:12;1.85;;;1.05;;
75379;SDS011;64279;44.714;37.756;2022-11-23T02:34:15;2.72;;;1.27;;
75379;SDS011;64279;44.714;37.756;2022-11-23T02:35:18;2.10;;;1.20;;
75379;SDS011;64279;44.714;37.756;2022-11-23T02:37:39;2.67;;;1.20;;
75379;SDS011;64279;44.714;37.756;2022-11-23T02:38:43;2.72;;;1.30;;
75379;SDS011;64279;44.714;37.756;2022-11-23T02:39:50;3.35;;;1.50;;
75379;SDS011;64279;44.714;37.756;2022-11-23T02:40:54;2.05;;;1.20;;
75379;SDS011;64279;44.714;37.756;2022-11-23T02:41:57;3.47;;;1.15;;
75379;SDS011;64279;44.714;37.756;2022-11-23T02:43:00;2.08;;;1.30;;
75379;SDS011;64279;44.714;37.756;2022-11-23T02:44:03;2.25;;;1.23;;
75379;SDS011;64279;44.714;37.756;2022-11-23T02:45:57;3.05;;;1.52;;
75379;SDS011;64279;44.714;37.756;2022-11-23T02:46:42;2.13;;;1.20;;
75379;SDS011;64279;44.714;37.756;2022-11-23T02:47:44;2.45;;;1.30;;
75379;SDS011;64279;44.714;37.756;2022-11-23T02:48:48;1.58;;;1.20;;
75379;SDS011;64279;44.714;37.756;2022-11-23T02:49:51;2.22;;;1.10;;
75379;SDS011;64279;44.714;37.756;2022-11-23T02:50:53;2.20;;;1.95;;
75379;SDS011;64279;44.714;37.756;2022-11-23T02:51:58;2.05;;;1.05;;
75379;SDS011;64279;44.714;37.756;2022-11-23T02:53:00;2.13;;;1.17;;
75379;SDS011;64279;44.714;37.756;2022-11-23T02:54:05;3.00;;;1.17;;
75379;SDS011;64279;44.714;37.756;2022-11-23T02:55:10;2.22;;;1.30;;
75379;SDS011;64279;44.714;37.756;2022-11-23T02:56:13;2.78;;;1.52;;
75379;SDS011;64279;44.714;37.756;2022-11-23T02:57:15;3.25;;;1.60;;
75379;SDS011;64279;44.714;37.756;2022-11-23T02:58:20;2.25;;;1.38;;
75379;SDS011;64279;44.714;37.756;2022-11-23T02:59:22;2.53;;;1.23;;
75379;SDS011;64279;44.714;37.756;2022-11-23T03:00:26;1.40;;;0.85;;
75379;SDS011;64279;44.714;37.756;2022-11-23T03:01:29;2.38;;;1.00;;
75379;SDS011;64279;44.714;37.756;2022-11-23T03:02:31;2.38;;;1.50;;
75379;SDS011;64279;44.714;37.756;2022-11-23T03:03:34;2.22;;;1.23;;
75379;SDS011;64279;44.714;37.756;2022-11-23T03:04:38;3.33;;;1.52;;
75379;SDS011;64279;44.714;37.756;2022-11-23T03:05:40;1.85;;;1.10;;
75379;SDS011;64279;44.714;37.756;2022-11-23T03:06:43;2.47;;;1.27;;
75379;SDS011;64279;44.714;37.756;2022-11-23T03:07:46;2.40;;;1.17;;
75379;SDS011;64279;44.714;37.756;2022-11-23T03:08:49;2.30;;;1.30;;
75379;SDS011;64279;44.714;37.756;2022-11-23T03:09:51;2.17;;;1.30;;
75379;SDS011;64279;44.714;37.756;2022-11-23T03:10:54;2.22;;;1.92;;
75379;SDS011;64279;44.714;37.756;2022-11-23T03:11:58;2.63;;;1.00;;
75379;SDS011;64279;44.714;37.756;2022-11-23T03:13:02;2.28;;;1.27;;
75379;SDS011;64279;44.714;37.756;2022-11-23T03:14:09;2.50;;;1.40;;
75379;SDS011;64279;44.714;37.756;2022-11-23T03:15:20;3.28;;;1.63;;
75379;SDS011;64279;44.714;37.756;2022-11-23T03:16:23;2.63;;;1.30;;
75379;SDS011;64279;44.714;37.756;2022-11-23T03:17:25;2.22;;;1.30;;
75379;SDS011;64279;44.714;37.756;2022-11-23T03:18:29;2.17;;;1.15;;
75379;SDS011;64279;44.714;37.756;2022-11-23T03:19:31;2.63;;;1.42;;
75379;SDS011;64279;44.714;37.756;2022-11-23T03:20:35;2.58;;;1.40;;
75379;SDS011;64279;44.714;37.756;2022-11-23T03:21:38;2.13;;;1.27;;
75379;SDS011;64279;44.714;37.756;2022-11-23T03:22:41;2.20;;;1.67;;
75379;SDS011;64279;44.714;37.756;2022-11-23T03:23:46;2.97;;;1.70;;
75379;SDS011;64279;44.714;37.756;2022-11-23T03:24:49;2.45;;;1.45;;
75379;SDS011;64279;44.714;37.756;2022-11-23T03:25:55;2.45;;;1.40;;
75379;SDS011;64279;44.714;37.756;2022-11-23T03:27:07;1.67;;;1.33;;
75379;SDS011;64279;44.714;37.756;2022-11-23T03:28:09;2.63;;;1.50;;
75379;SDS011;64279;44.714;37.756;2022-11-23T03:29:12;2.50;;;0.98;;
75379;SDS011;64279;44.714;37.756;2022-11-23T03:30:16;2.28;;;1.42;;
75379;SDS011;64279;44.714;37.756;2022-11-23T03:31:18;2.33;;;1.27;;
75379;SDS011;64279;44.714;37.756;2022-11-23T03:32:22;3.50;;;1.58;;
75379;SDS011;64279;44.714;37.756;2022-11-23T03:33:27;2.80;;;1.45;;
75379;SDS011;64279;44.714;37.756;2022-11-23T03:34:30;2.30;;;1.48;;
75379;SDS011;64279;44.714;37.756;2022-11-23T03:35:34;2.47;;;1.50;;
75379;SDS011;64279;44.714;37.756;2022-11-23T03:37:03;2.20;;;1.67;;
75379;SDS011;64279;44.714;37.756;2022-11-23T03:38:06;2.33;;;1.38;;
75379;SDS011;64279;44.714;37.756;2022-11-23T03:39:10;2.22;;;1.60;;
75379;SDS011;64279;44.714;37.756;2022-11-23T03:40:31;2.95;;;1.60;;
75379;SDS011;64279;44.714;37.756;2022-11-23T03:42:06;2.55;;;1.48;;
75379;SDS011;64279;44.714;37.756;2022-11-23T03:43:10;2.50;;;1.60;;
75379;SDS011;64279;44.714;37.756;2022-11-23T03:44:14;3.05;;;1.55;;
75379;SDS011;64279;44.714;37.756;2022-11-23T03:45:17;2.80;;;1.83;;
75379;SDS011;64279;44.714;37.756;2022-11-23T03:46:22;2.55;;;1.58;;
75379;SDS011;64279;44.714;37.756;2022-11-23T03:47:25;2.22;;;1.42;;
75379;SDS011;64279;44.714;37.756;2022-11-23T03:48:27;3.55;;;1.75;;
75379;SDS011;64279;44.714;37.756;2022-11-23T03:49:31;2.90;;;1.63;;
75379;SDS011;64279;44.714;37.756;2022-11-23T03:50:34;2.50;;;1.85;;
75379;SDS011;64279;44.714;37.756;2022-11-23T03:51:36;3.25;;;1.95;;
75379;SDS011;64279;44.714;37.756;2022-11-23T03:52:39;2.75;;;1.70;;
75379;SDS011;64279;44.714;37.756;2022-11-23T03:53:41;4.05;;;1.83;;
75379;SDS011;64279;44.714;37.756;2022-11-23T03:54:44;2.70;;;1.60;;
75379;SDS011;64279;44.714;37.756;2022-11-23T03:55:48;3.17;;;1.98;;
75379;SDS011;64279;44.714;37.756;2022-11-23T03:56:58;2.58;;;1.88;;
75379;SDS011;64279;44.714;37.756;2022-11-23T03:58:00;2.22;;;1.58;;
75379;SDS011;64279;44.714;37.756;2022-11-23T03:59:07;4.20;;;1.60;;
75379;SDS011;64279;44.714;37.756;2022-11-23T04:00:09;2.70;;;1.58;;
75379;SDS011;64279;44.714;37.756;2022-11-23T04:01:20;2.70;;;1.98;;
75379;SDS011;64279;44.714;37.756;2022-11-23T04:02:29;3.13;;;1.73;;
75379;SDS011;64279;44.714;37.756;2022-11-23T04:03:39;2.33;;;1.50;;
75379;SDS011;64279;44.714;37.756;2022-11-23T04:05:14;2.45;;;1.23;;
75379;SDS011;64279;44.714;37.756;2022-11-23T04:06:43;2.95;;;1.50;;
75379;SDS011;64279;44.714;37.756;2022-11-23T04:07:57;2.67;;;1.73;;
75379;SDS011;64279;44.714;37.756;2022-11-23T04:09:00;2.35;;;1.55;;
75379;SDS011;64279;44.714;37.756;2022-11-23T04:10:26;3.75;;;2.15;;
75379;SDS011;64279;44.714;37.756;2022-11-23T04:11:37;2.75;;;1.90;;
75379;SDS011;64279;44.714;37.756;2022-11-23T04:12:41;3.03;;;1.70;;
75379;SDS011;64279;44.714;37.756;2022-11-23T04:13:44;3.88;;;1.70;;
75379;SDS011;64279;44.714;37.756;2022-11-23T04:14:47;3.63;;;1.83;;
75379;SDS011;64279;44.714;37.756;2022-11-23T04:15:49;2.97;;;1.92;;
75379;SDS011;64279;44.714;37.756;2022-11-23T04:16:52;3.47;;;2.00;;
75379;SDS011;64279;44.714;37.756;2022-11-23T04:17:55;3.33;;;1.83;;
75379;SDS011;64279;44.714;37.756;2022-11-23T04:18:58;2.80;;;1.77;;
75379;SDS011;64279;44.714;37.756;2022-11-23T04:20:01;5.65;;;2.35;;
75379;SDS011;64279;44.714;37.756;2022-11-23T04:21:04;4.53;;;2.00;;
75379;SDS011;64279;44.714;37.756;2022-11-23T04:22:07;4.28;;;1.83;;
75379;SDS011;64279;44.714;37.756;2022-11-23T04:23:14;4.07;;;1.98;;
75379;SDS011;64279;44.714;37.756;2022-11-23T04:24:16;3.88;;;2.10;;
75379;SDS011;64279;44.714;37.756;2022-11-23T04:25:20;4.80;;;2.05;;
75379;SDS011;64279;44.714;37.756;2022-11-23T04:26:24;3.60;;;2.13;;
75379;SDS011;64279;44.714;37.756;2022-11-23T04:27:28;4.03;;;1.90;;
75379;SDS011;64279;44.714;37.756;2022-11-23T04:28:31;4.28;;;2.20;;
75379;SDS011;64279;44.714;37.756;2022-11-23T04:29:33;6.63;;;2.30;;
75379;SDS011;64279;44.714;37.756;2022-11-23T04:30:36;6.18;;;2.20;;
75379;SDS011;64279;44.714;37.756;2022-11-23T04:31:40;4.40;;;2.13;;
75379;SDS011;64279;44.714;37.756;2022-11-23T04:32:48;5.32;;;2.10;;
75379;SDS011;64279;44.714;37.756;2022-11-23T04:33:50;3.90;;;2.10;;
75379;SDS011;64279;44.714;37.756;2022-11-23T04:34:54;4.97;;;2.58;;
75379;SDS011;64279;44.714;37.756;2022-11-23T04:35:57;3.70;;;1.95;;
75379;SDS011;64279;44.714;37.756;2022-11-23T04:37:00;5.00;;;2.30;;
75379;SDS011;64279;44.714;37.756;2022-11-23T04:38:09;3.85;;;2.20;;
75379;SDS011;64279;44.714;37.756;2022-11-23T04:39:11;5.07;;;2.67;;
75379;SDS011;64279;44.714;37.756;2022-11-23T04:40:45;5.40;;;2.10;;
75379;SDS011;64279;44.714;37.756;2022-11-23T04:41:49;5.43;;;2.40;;
75379;SDS011;64279;44.714;37.756;2022-11-23T04:42:53;5.60;;;2.33;;
75379;SDS011;64279;44.714;37.756;2022-11-23T04:44:03;5.10;;;2.70;;
75379;SDS011;64279;44.714;37.756;2022-11-23T04:45:08;5.25;;;2.63;;
75379;SDS011;64279;44.714;37.756;2022-11-23T04:46:12;4.88;;;2.28;;
75379;SDS011;64279;44.714;37.756;2022-11-23T04:47:15;4.50;;;2.30;;
75379;SDS011;64279;44.714;37.756;2022-11-23T04:48:20;6.03;;;2.10;;
75379;SDS011;64279;44.714;37.756;2022-11-23T04:49:23;5.90;;;2.47;;
75379;SDS011;64279;44.714;37.756;2022-11-23T04:50:26;3.90;;;2.55;;
75379;SDS011;64279;44.714;37.756;2022-11-23T04:51:29;5.10;;;2.20;;
75379;SDS011;64279;44.714;37.756;2022-11-23T04:52:34;7.22;;;2.17;;
75379;SDS011;64279;44.714;37.756;2022-11-23T04:53:39;5.65;;;2.42;;
75379;SDS011;64279;44.714;37.756;2022-11-23T04:54:43;4.70;;;1.95;;
75379;SDS011;64279;44.714;37.756;2022-11-23T04:55:46;5.15;;;2.30;;
75379;SDS011;64279;44.714;37.756;2022-11-23T04:56:50;6.05;;;2.00;;
75379;SDS011;64279;44.714;37.756;2022-11-23T04:57:53;5.60;;;2.40;;
75379;SDS011;64279;44.714;37.756;2022-11-23T04:58:57;4.88;;;2.13;;
75379;SDS011;64279;44.714;37.756;2022-11-23T04:59:59;5.03;;;2.33;;
75379;SDS011;64279;44.714;37.756;2022-11-23T05:01:03;6.63;;;3.70;;
75379;SDS011;64279;44.714;37.756;2022-11-23T05:02:16;6.70;;;2.20;;
75379;SDS011;64279;44.714;37.756;2022-11-23T05:03:18;4.72;;;3.55;;
75379;SDS011;64279;44.714;37.756;2022-11-23T05:04:22;4.35;;;2.10;;
75379;SDS011;64279;44.714;37.756;2022-11-23T05:05:25;4.80;;;2.42;;
75379;SDS011;64279;44.714;37.756;2022-11-23T05:06:28;4.43;;;2.42;;
75379;SDS011;64279;44.714;37.756;2022-11-23T05:07:32;4.88;;;2.20;;
75379;SDS011;64279;44.714;37.756;2022-11-23T05:08:37;7.57;;;1.98;;
75379;SDS011;64279;44.714;37.756;2022-11-23T05:10:09;5.97;;;2.08;;
75379;SDS011;64279;44.714;37.756;2022-11-23T05:11:13;3.90;;;2.17;;
75379;SDS011;64279;44.714;37.756;2022-11-23T05:12:16;5.72;;;2.35;;
75379;SDS011;64279;44.714;37.756;2022-11-23T05:13:19;6.05;;;2.70;;
75379;SDS011;64279;44.714;37.756;2022-11-23T05:14:23;4.05;;;2.38;;
75379;SDS011;64279;44.714;37.756;2022-11-23T05:15:26;4.57;;;2.42;;
75379;SDS011;64279;44.714;37.756;2022-11-23T05:16:29;5.80;;;2.50;;
75379;SDS011;64279;44.714;37.756;2022-11-23T05:17:33;4.65;;;2.33;;
75379;SDS011;64279;44.714;37.756;2022-11-23T05:18:39;4.50;;;2.35;;
75379;SDS011;64279;44.714;37.756;2022-11-23T05:19:43;5.15;;;2.20;;
75379;SDS011;64279;44.714;37.756;2022-11-23T05:20:47;3.60;;;2.22;;
75379;SDS011;64279;44.714;37.756;2022-11-23T05:21:50;5.78;;;2.17;;
75379;SDS011;64279;44.714;37.756;2022-11-23T05:22:53;5.07;;;2.42;;
75379;SDS011;64279;44.714;37.756;2022-11-23T05:23:58;6.47;;;2.00;;
75379;SDS011;64279;44.714;37.756;2022-11-23T05:25:02;5.43;;;2.45;;
75379;SDS011;64279;44.714;37.756;2022-11-23T05:26:07;3.80;;;1.90;;
75379;SDS011;64279;44.714;37.756;2022-11-23T05:27:12;5.30;;;1.98;;
75379;SDS011;64279;44.714;37.756;2022-11-23T05:28:18;6.05;;;1.95;;
75379;SDS011;64279;44.714;37.756;2022-11-23T05:29:42;5.45;;;2.97;;
75379;SDS011;64279;44.714;37.756;2022-11-23T05:30:45;4.53;;;2.92;;
75379;SDS011;64279;44.714;37.756;2022-11-23T05:31:48;5.53;;;2.25;;
75379;SDS011;64279;44.714;37.756;2022-11-23T05:32:51;4.05;;;2.10;;
75379;SDS011;64279;44.714;37.756;2022-11-23T05:33:55;3.33;;;1.92;;
75379;SDS011;64279;44.714;37.756;2022-11-23T05:35:09;6.90;;;1.80;;
75379;SDS011;64279;44.714;37.756;2022-11-23T05:36:12;4.13;;;2.00;;
75379;SDS011;64279;44.714;37.756;2022-11-23T05:37:16;5.68;;;2.22;;
75379;SDS011;64279;44.714;37.756;2022-11-23T05:38:30;4.93;;;2.15;;
75379;SDS011;64279;44.714;37.756;2022-11-23T05:39:35;6.78;;;2.28;;
75379;SDS011;64279;44.714;37.756;2022-11-23T05:40:39;4.95;;;1.90;;
75379;SDS011;64279;44.714;37.756;2022-11-23T05:41:42;4.05;;;1.98;;
75379;SDS011;64279;44.714;37.756;2022-11-23T05:43:02;4.72;;;1.83;;
75379;SDS011;64279;44.714;37.756;2022-11-23T05:44:05;6.05;;;2.20;;
75379;SDS011;64279;44.714;37.756;2022-11-23T05:45:08;6.38;;;3.38;;
75379;SDS011;64279;44.714;37.756;2022-11-23T05:46:17;6.28;;;2.40;;
75379;SDS011;64279;44.714;37.756;2022-11-23T05:47:20;6.00;;;2.13;;
75379;SDS011;64279;44.714;37.756;2022-11-23T05:48:23;5.25;;;1.98;;
75379;SDS011;64279;44.714;37.756;2022-11-23T05:49:41;5.00;;;2.95;;
75379;SDS011;64279;44.714;37.756;2022-11-23T05:50:45;5.72;;;2.10;;
75379;SDS011;64279;44.714;37.756;2022-11-23T05:51:57;5.72;;;2.05;;
75379;SDS011;64279;44.714;37.756;2022-11-23T05:53:01;6.40;;;2.20;;
75379;SDS011;64279;44.714;37.756;2022-11-23T05:54:05;6.03;;;3.67;;
75379;SDS011;64279;44.714;37.756;2022-11-23T05:55:18;5.72;;;2.20;;
75379;SDS011;64279;44.714;37.756;2022-11-23T05:56:21;4.80;;;2.45;;
75379;SDS011;64279;44.714;37.756;2022-11-23T05:57:48;3.75;;;2.10;;
75379;SDS011;64279;44.714;37.756;2022-11-23T05:58:50;7.15;;;2.15;;
75379;SDS011;64279;44.714;37.756;2022-11-23T05:59:53;6.80;;;2.20;;
75379;SDS011;64279;44.714;37.756;2022-11-23T06:01:02;5.68;;;2.03;;
75379;SDS011;64279;44.714;37.756;2022-11-23T06:02:08;4.75;;;2.20;;
75379;SDS011;64279;44.714;37.756;2022-11-23T06:03:11;5.88;;;2.33;;
75379;SDS011;64279;44.714;37.756;2022-11-23T06:04:14;6.47;;;2.92;;
75379;SDS011;64279;44.714;37.756;2022-11-23T06:05:19;6.15;;;2.90;;
75379;SDS011;64279;44.714;37.756;2022-11-23T06:06:23;4.75;;;2.53;;
75379;SDS011;64279;44.714;37.756;2022-11-23T06:07:26;5.95;;;2.95;;
75379;SDS011;64279;44.714;37.756;2022-11-23T06:08:41;8.10;;;3.83;;
75379;SDS011;64279;44.714;37.756;2022-11-23T06:09:50;6.43;;;3.60;;
75379;SDS011;64279;44.714;37.756;2022-11-23T06:10:53;6.38;;;3.55;;
75379;SDS011;64279;44.714;37.756;2022-11-23T06:11:56;6.68;;;4.78;;
75379;SDS011;64279;44.714;37.756;2022-11-23T06:13:02;8.10;;;3.45;;
75379;SDS011;64279;44.714;37.756;2022-11-23T06:14:06;7.35;;;3.95;;
75379;SDS011;64279;44.714;37.756;2022-11-23T06:15:16;8.13;;;3.50;;
75379;SDS011;64279;44.714;37.756;2022-11-23T06:16:20;6.80;;;4.45;;
75379;SDS011;64279;44.714;37.756;2022-11-23T06:17:35;9.05;;;5.10;;
75379;SDS011;64279;44.714;37.756;2022-11-23T06:18:42;8.02;;;4.30;;
75379;SDS011;64279;44.714;37.756;2022-11-23T06:19:45;7.18;;;3.70;;
75379;SDS011;64279;44.714;37.756;2022-11-23T06:20:47;6.68;;;3.63;;
75379;SDS011;64279;44.714;37.756;2022-11-23T06:21:51;10.20;;;5.03;;
75379;SDS011;64279;44.714;37.756;2022-11-23T06:22:55;8.07;;;4.20;;
75379;SDS011;64279;44.714;37.756;2022-11-23T06:23:59;8.27;;;4.15;;
75379;SDS011;64279;44.714;37.756;2022-11-23T06:25:04;8.35;;;5.00;;
75379;SDS011;64279;44.714;37.756;2022-11-23T06:26:13;8.15;;;3.88;;
75379;SDS011;64279;44.714;37.756;2022-11-23T06:27:16;9.55;;;5.50;;
75379;SDS011;64279;44.714;37.756;2022-11-23T06:28:21;8.68;;;4.82;;
75379;SDS011;64279;44.714;37.756;2022-11-23T06:29:24;8.07;;;5.65;;
75379;SDS011;64279;44.714;37.756;2022-11-23T06:30:27;9.63;;;4.70;;
75379;SDS011;64279;44.714;37.756;2022-11-23T06:31:37;9.18;;;5.03;;
75379;SDS011;64279;44.714;37.756;2022-11-23T06:32:40;7.60;;;4.70;;